createdAt,value
2017-12-04T00:00:35.288Z,97516.55
2017-12-04T00:03:01.907Z,97509.11
2017-12-04T00:05:28.071Z,97518.75
2017-12-04T00:07:54.176Z,97522.57
2017-12-04T00:10:20.532Z,97520.31
2017-12-04T00:12:46.653Z,97517.27
2017-12-04T00:15:12.803Z,97520.05
2017-12-04T00:17:38.903Z,97517.67
2017-12-04T00:20:05.012Z,97517.11
2017-12-04T00:22:34.072Z,97524.03
2017-12-04T00:25:00.224Z,97524.84
2017-12-04T00:27:26.320Z,97519.23
2017-12-04T00:29:52.438Z,97511.86
2017-12-04T00:32:18.548Z,97517.95
2017-12-04T00:34:44.671Z,97520.43
2017-12-04T00:37:10.769Z,97518.52
2017-12-04T00:39:36.924Z,97522.00
2017-12-04T00:42:03.051Z,97518.05
2017-12-04T00:44:29.151Z,97513.15
2017-12-04T00:46:55.361Z,97527.94
2017-12-04T00:49:21.616Z,97533.58
2017-12-04T00:51:47.722Z,97538.75
2017-12-04T00:54:13.833Z,97533.30
2017-12-04T00:56:39.980Z,97532.55
2017-12-04T00:59:06.144Z,97529.41
2017-12-04T01:01:32.343Z,97534.92
2017-12-04T01:03:58.520Z,97538.81
2017-12-04T01:06:24.660Z,97537.69
2017-12-04T01:08:50.770Z,97536.33
2017-12-04T01:11:16.816Z,97533.72
2017-12-04T01:13:42.945Z,97546.55
2017-12-04T01:16:09.081Z,97545.20
2017-12-04T01:18:35.164Z,97552.30
2017-12-04T01:21:01.331Z,97548.23
2017-12-04T01:23:27.411Z,97558.08
2017-12-04T01:25:53.536Z,97560.68
2017-12-04T01:28:19.646Z,97549.17
2017-12-04T01:30:45.830Z,97542.52
2017-12-04T01:33:11.980Z,97552.39
2017-12-04T01:35:38.156Z,97553.86
2017-12-04T01:38:04.259Z,97557.98
2017-12-04T01:40:30.339Z,97551.78
2017-12-04T01:42:56.481Z,97548.61
2017-12-04T01:45:22.598Z,97546.36
2017-12-04T01:47:48.688Z,97546.79
2017-12-04T01:50:14.823Z,97542.17
2017-12-04T01:52:40.931Z,97550.53
2017-12-04T01:55:07.107Z,97550.91
2017-12-04T01:57:33.262Z,97541.16
2017-12-04T01:59:59.390Z,97539.91
2017-12-04T02:02:25.565Z,97549.11
2017-12-04T02:04:51.682Z,97543.80
2017-12-04T02:07:17.824Z,97541.48
2017-12-04T02:09:43.900Z,97544.59
2017-12-04T02:12:10.032Z,97537.88
2017-12-04T02:14:36.188Z,97543.23
2017-12-04T02:17:02.382Z,97541.38
2017-12-04T02:19:28.496Z,97538.45
2017-12-04T02:21:54.604Z,97540.42
2017-12-04T02:24:20.744Z,97537.71
2017-12-04T02:26:46.879Z,97535.80
2017-12-04T02:29:13.072Z,97539.58
2017-12-04T02:31:39.155Z,97527.78
2017-12-04T02:34:05.281Z,97526.09
2017-12-04T02:36:31.382Z,97540.02
2017-12-04T02:38:57.579Z,97540.31
2017-12-04T02:41:23.696Z,97537.94
2017-12-04T02:43:49.764Z,97532.91
2017-12-04T02:46:15.846Z,97541.48
2017-12-04T02:48:41.960Z,97546.97
2017-12-04T02:51:08.040Z,97547.90
2017-12-04T02:53:34.122Z,97548.23
2017-12-04T02:56:00.351Z,97552.87
2017-12-04T02:58:26.496Z,97559.92
2017-12-04T03:00:52.525Z,97556.14
2017-12-04T03:03:18.632Z,97556.93
2017-12-04T03:05:44.740Z,97556.20
2017-12-04T03:08:10.825Z,97551.62
2017-12-04T03:10:36.935Z,97560.70
2017-12-04T03:13:03.035Z,97557.55
2017-12-04T03:15:29.144Z,97556.08
2017-12-04T03:17:55.201Z,97566.91
2017-12-04T03:20:21.312Z,97561.33
2017-12-04T03:22:47.408Z,97563.87
2017-12-04T03:25:13.443Z,97554.62
2017-12-04T03:27:39.523Z,97537.63
2017-12-04T03:30:05.592Z,97549.03
2017-12-04T03:32:31.693Z,97548.97
2017-12-04T03:34:57.780Z,97537.45
2017-12-04T03:37:23.869Z,97534.53
2017-12-04T03:39:49.936Z,97542.14
2017-12-04T03:42:16.072Z,97539.48
2017-12-04T03:44:42.167Z,97540.95
2017-12-04T03:47:08.288Z,97550.22
2017-12-04T03:49:34.373Z,97546.52
2017-12-04T03:52:00.515Z,97542.23
2017-12-04T03:54:26.655Z,97540.02
2017-12-04T03:56:53.688Z,97536.86
2017-12-04T03:59:19.867Z,97540.92
2017-12-04T04:01:46.008Z,97540.30
2017-12-04T04:04:12.172Z,97544.94
2017-12-04T04:06:38.281Z,97547.59
2017-12-04T04:09:04.352Z,97548.43
2017-12-04T04:11:30.419Z,97534.01
2017-12-04T04:13:56.519Z,97532.34
2017-12-04T04:16:22.631Z,97545.92
2017-12-04T04:18:48.728Z,97553.91
2017-12-04T04:21:14.831Z,97551.39
2017-12-04T04:23:40.888Z,97549.69
2017-12-04T04:26:07.001Z,97550.03
2017-12-04T04:28:33.153Z,97559.52
2017-12-04T04:30:59.375Z,97562.34
2017-12-04T04:33:25.561Z,97558.17
2017-12-04T04:35:51.989Z,97565.11
2017-12-04T04:38:18.095Z,97564.48
2017-12-04T04:40:44.221Z,97570.36
2017-12-04T04:43:10.284Z,97568.33
2017-12-04T04:45:36.407Z,97554.55
2017-12-04T04:48:02.536Z,97553.08
2017-12-04T04:50:28.667Z,97553.70
2017-12-04T04:52:54.805Z,97557.31
2017-12-04T04:55:20.967Z,97564.42
2017-12-04T04:57:47.084Z,97564.66
2017-12-04T05:00:13.174Z,97562.96
2017-12-04T05:02:39.333Z,97547.89
2017-12-04T05:05:05.516Z,97550.66
2017-12-04T05:07:31.797Z,97540.16
2017-12-04T05:09:57.983Z,97542.91
2017-12-04T05:12:24.096Z,97558.22
2017-12-04T05:14:50.200Z,97559.31
2017-12-04T05:17:16.364Z,97559.42
2017-12-04T05:19:42.508Z,97545.59
2017-12-04T05:22:08.896Z,97538.58
2017-12-04T05:24:35.037Z,97543.05
2017-12-04T05:27:01.188Z,97543.33
2017-12-04T05:29:27.356Z,97533.84
2017-12-04T05:31:53.717Z,97529.39
2017-12-04T05:34:19.912Z,97528.52
2017-12-04T05:36:46.364Z,97534.14
2017-12-04T05:39:12.564Z,97535.06
2017-12-04T05:41:38.755Z,97554.57
2017-12-04T05:44:04.972Z,97548.64
2017-12-04T05:46:31.137Z,97553.77
2017-12-04T05:48:57.388Z,97555.23
2017-12-04T05:51:23.612Z,97559.19
2017-12-04T05:53:49.864Z,97552.02
2017-12-04T05:56:15.995Z,97541.08
2017-12-04T05:58:42.148Z,97550.97
2017-12-04T06:01:08.340Z,97553.45
2017-12-04T06:03:34.472Z,97561.91
2017-12-04T06:06:00.588Z,97558.91
2017-12-04T06:08:26.720Z,97562.02
2017-12-04T06:10:52.836Z,97564.75
2017-12-04T06:13:18.909Z,97570.67
2017-12-04T06:15:45.019Z,97579.61
2017-12-04T06:18:11.132Z,97579.75
2017-12-04T06:20:37.273Z,97576.55
2017-12-04T06:23:03.440Z,97595.58
2017-12-04T06:25:29.571Z,97595.41
2017-12-04T06:27:55.722Z,97604.91
2017-12-04T06:30:21.896Z,97597.22
2017-12-04T06:32:48.075Z,97592.80
2017-12-04T06:35:14.243Z,97594.50
2017-12-04T06:37:40.342Z,97595.72
2017-12-04T06:40:06.504Z,97596.39
2017-12-04T06:42:32.616Z,97605.38
2017-12-04T06:44:58.751Z,97609.83
2017-12-04T06:47:24.887Z,97612.83
2017-12-04T06:49:51.004Z,97615.36
2017-12-04T06:52:17.149Z,97611.52
2017-12-04T06:54:43.247Z,97610.33
2017-12-04T06:57:09.434Z,97611.00
2017-12-04T06:59:35.605Z,97615.30
2017-12-04T07:02:01.736Z,97620.38
2017-12-04T07:04:27.904Z,97617.62
2017-12-04T07:06:54.043Z,97614.39
2017-12-04T07:09:20.160Z,97622.70
2017-12-04T07:11:46.288Z,97629.98
2017-12-04T07:14:12.406Z,97630.67
2017-12-04T07:16:38.509Z,97633.38
2017-12-04T07:19:04.629Z,97637.25
2017-12-04T07:21:30.781Z,97636.45
2017-12-04T07:23:56.958Z,97627.91
2017-12-04T07:26:23.105Z,97634.57
2017-12-04T07:28:49.218Z,97638.75
2017-12-04T07:31:15.353Z,97639.85
2017-12-04T07:33:41.488Z,97639.73
2017-12-04T07:36:07.772Z,97647.81
2017-12-04T07:38:33.832Z,97651.38
2017-12-04T07:40:59.960Z,97651.48
2017-12-04T07:43:26.152Z,97643.85
2017-12-04T07:45:52.396Z,97637.86
2017-12-04T07:48:18.528Z,97646.50
2017-12-04T07:50:44.631Z,97663.06
2017-12-04T07:53:10.743Z,97651.72
2017-12-04T07:55:36.872Z,97645.03
2017-12-04T07:58:03.494Z,97660.80
2017-12-04T08:00:29.620Z,97657.13
2017-12-04T08:02:55.825Z,97653.45
2017-12-04T08:05:22.016Z,97655.14
2017-12-04T08:07:48.173Z,97655.77
2017-12-04T08:10:14.257Z,97666.27
2017-12-04T08:12:40.446Z,97652.82
2017-12-04T08:15:06.592Z,97661.80
2017-12-04T08:17:32.720Z,97655.30
2017-12-04T08:19:58.880Z,97650.78
2017-12-04T08:22:25.048Z,97645.14
2017-12-04T08:24:51.168Z,97639.88
2017-12-04T08:27:17.293Z,97650.23
2017-12-04T08:29:43.484Z,97641.22
2017-12-04T08:32:09.616Z,97643.42
2017-12-04T08:34:35.784Z,97641.56
2017-12-04T08:37:01.960Z,97648.86
2017-12-04T08:39:28.133Z,97656.92
2017-12-04T08:41:54.308Z,97659.44
2017-12-04T08:44:20.465Z,97665.76
2017-12-04T08:46:46.612Z,97673.56
2017-12-04T08:49:12.752Z,97677.81
2017-12-04T08:51:38.864Z,97676.75
2017-12-04T08:54:04.988Z,97683.63
2017-12-04T08:56:31.093Z,97678.86
2017-12-04T08:58:57.673Z,97686.20
2017-12-04T09:01:23.743Z,97688.09
2017-12-04T09:03:49.890Z,97684.47
2017-12-04T09:06:16.017Z,97681.23
2017-12-04T09:08:42.131Z,97681.35
2017-12-04T09:11:08.312Z,97678.81
2017-12-04T09:13:34.464Z,97689.72
2017-12-04T09:16:00.604Z,97686.72
2017-12-04T09:18:26.670Z,97683.84
2017-12-04T09:20:52.815Z,97687.80
2017-12-04T09:23:18.955Z,97685.82
2017-12-04T09:25:45.092Z,97688.81
2017-12-04T09:28:11.265Z,97690.28
2017-12-04T09:30:37.382Z,97688.12
2017-12-04T09:33:03.508Z,97686.94
2017-12-04T09:35:29.632Z,97688.45
2017-12-04T09:37:55.760Z,97686.24
2017-12-04T09:40:21.948Z,97681.89
2017-12-04T09:42:48.068Z,97683.24
2017-12-04T09:45:14.232Z,97686.84
2017-12-04T09:47:40.328Z,97684.87
2017-12-04T09:50:06.579Z,97673.98
2017-12-04T09:52:32.612Z,97689.69
2017-12-04T09:54:58.724Z,97694.14
2017-12-04T09:57:24.816Z,97695.05
2017-12-04T09:59:50.937Z,97698.33
2017-12-04T10:02:17.043Z,97696.12
2017-12-04T10:04:43.177Z,97687.20
2017-12-04T10:07:09.326Z,97685.89
2017-12-04T10:09:35.464Z,97680.59
2017-12-04T10:12:01.585Z,97677.03
2017-12-04T10:14:27.695Z,97676.60
2017-12-04T10:16:53.799Z,97675.81
2017-12-04T10:19:19.937Z,97682.95
2017-12-04T10:21:46.011Z,97678.02
2017-12-04T10:24:12.122Z,97687.92
2017-12-04T10:26:38.320Z,97679.84
2017-12-04T10:29:04.400Z,97681.61
2017-12-04T10:31:30.431Z,97684.02
2017-12-04T10:33:56.556Z,97683.86
2017-12-04T10:36:22.632Z,97689.23
2017-12-04T10:38:48.744Z,97691.63
2017-12-04T10:41:14.808Z,97683.30
2017-12-04T10:43:40.877Z,97686.43
2017-12-04T10:46:06.979Z,97688.20
2017-12-04T10:48:33.128Z,97681.97
2017-12-04T10:50:59.171Z,97681.97
2017-12-04T10:53:25.305Z,97672.27
2017-12-04T10:55:51.392Z,97673.45
2017-12-04T10:58:17.622Z,97665.44
2017-12-04T11:00:44.114Z,97666.42
2017-12-04T11:03:10.228Z,97669.78
2017-12-04T11:05:36.380Z,97665.75
2017-12-04T11:08:02.548Z,97668.55
2017-12-04T11:10:28.638Z,97668.58
2017-12-04T11:12:54.796Z,97671.82
2017-12-04T11:15:20.945Z,97665.86
2017-12-04T11:17:47.022Z,97671.16
2017-12-04T11:20:13.120Z,97671.63
2017-12-04T11:22:39.220Z,97672.33
2017-12-04T11:25:05.336Z,97674.77
2017-12-04T11:27:31.459Z,97670.98
2017-12-04T11:29:57.644Z,97670.39
2017-12-04T11:32:23.789Z,97670.75
2017-12-04T11:34:49.920Z,97666.05
2017-12-04T11:37:16.039Z,97675.98
2017-12-04T11:39:42.144Z,97671.58
2017-12-04T11:42:08.400Z,97674.42
2017-12-04T11:44:34.585Z,97669.83
2017-12-04T11:47:00.681Z,97668.77
2017-12-04T11:49:26.881Z,97672.10
2017-12-04T11:51:52.912Z,97660.18
2017-12-04T11:54:19.044Z,97659.95
2017-12-04T11:56:45.122Z,97660.63
2017-12-04T11:59:11.256Z,97664.74
2017-12-04T12:01:37.436Z,97661.05
2017-12-04T12:04:03.552Z,97663.99
2017-12-04T12:06:29.656Z,97662.03
2017-12-04T12:08:55.879Z,97673.74
2017-12-04T12:11:22.014Z,97677.81
2017-12-04T12:13:48.105Z,97673.98
2017-12-04T12:16:14.242Z,97674.30
2017-12-04T12:18:40.349Z,97668.92
2017-12-04T12:21:06.476Z,97672.83
2017-12-04T12:23:32.584Z,97676.34
2017-12-04T12:25:58.704Z,97668.25
2017-12-04T12:28:24.840Z,97678.32
2017-12-04T12:30:50.952Z,97670.11
2017-12-04T12:33:17.013Z,97670.70
2017-12-04T12:35:43.145Z,97667.50
2017-12-04T12:38:09.293Z,97669.81
2017-12-04T12:40:35.430Z,97673.58
2017-12-04T12:43:01.545Z,97666.45
2017-12-04T12:45:27.697Z,97665.27
2017-12-04T12:47:53.813Z,97660.53
2017-12-04T12:50:19.943Z,97657.53
2017-12-04T12:52:46.598Z,97656.45
2017-12-04T12:55:12.739Z,97665.26
2017-12-04T12:57:38.862Z,97664.33
2017-12-04T13:00:05.030Z,97661.13
2017-12-04T13:02:31.219Z,97657.52
2017-12-04T13:04:57.319Z,97667.80
2017-12-04T13:07:23.440Z,97665.39
2017-12-04T13:09:49.628Z,97658.04
2017-12-04T13:12:15.763Z,97660.61
2017-12-04T13:14:41.928Z,97668.90
2017-12-04T13:17:08.059Z,97660.37
2017-12-04T13:19:34.124Z,97666.89
2017-12-04T13:22:00.243Z,97675.57
2017-12-04T13:24:26.349Z,97667.52
2017-12-04T13:26:52.566Z,97666.44
2017-12-04T13:29:18.691Z,97666.83
2017-12-04T13:31:44.791Z,97661.16
2017-12-04T13:37:20.387Z,97661.28
2017-12-04T13:39:46.497Z,97661.94
2017-12-04T13:42:12.652Z,97653.84
2017-12-04T13:44:38.776Z,97658.53
2017-12-04T13:47:04.949Z,97649.73
2017-12-04T13:49:31.068Z,97662.63
2017-12-04T13:51:57.352Z,97658.52
2017-12-04T13:54:23.483Z,97665.05
2017-12-04T13:56:49.624Z,97668.77
2017-12-04T13:59:15.756Z,97659.47
2017-12-04T14:01:41.964Z,97666.08
2017-12-04T14:04:08.100Z,97675.45
2017-12-04T14:06:34.211Z,97674.94
2017-12-04T14:09:00.456Z,97678.06
2017-12-04T14:11:26.628Z,97677.08
2017-12-04T14:13:52.779Z,97678.34
2017-12-04T14:16:18.877Z,97675.03
2017-12-04T14:18:44.998Z,97686.48
2017-12-04T14:21:11.148Z,97693.34
2017-12-04T14:23:37.360Z,97697.02
2017-12-04T14:26:03.449Z,97705.60
2017-12-04T14:28:29.580Z,97705.45
2017-12-04T14:30:55.712Z,97708.41
2017-12-04T14:33:21.854Z,97711.41
2017-12-04T14:35:47.978Z,97712.75
2017-12-04T14:38:14.131Z,97718.44
2017-12-04T14:40:40.347Z,97722.62
2017-12-04T14:43:06.456Z,97722.38
2017-12-04T14:45:32.583Z,97735.17
2017-12-04T14:47:58.754Z,97737.03
2017-12-04T14:50:24.903Z,97744.92
2017-12-04T14:52:50.969Z,97748.66
2017-12-04T14:55:17.036Z,97750.76
2017-12-04T14:57:43.096Z,97757.03
2017-12-04T15:00:09.213Z,97756.69
2017-12-04T15:02:35.274Z,97761.18
2017-12-04T15:05:01.409Z,97757.56
2017-12-04T15:07:27.532Z,97760.13
2017-12-04T15:09:53.653Z,97756.94
2017-12-04T15:12:19.748Z,97760.61
2017-12-04T15:14:45.944Z,97754.33
2017-12-04T15:17:11.972Z,97765.38
2017-12-04T15:19:38.148Z,97761.18
2017-12-04T15:22:04.244Z,97760.36
2017-12-04T15:24:30.320Z,97770.22
2017-12-04T15:26:56.404Z,97772.80
2017-12-04T15:29:22.503Z,97773.90
2017-12-04T15:31:48.590Z,97782.90
2017-12-04T15:34:14.660Z,97780.25
2017-12-04T15:36:40.828Z,97789.64
2017-12-04T15:39:06.906Z,97786.69
2017-12-04T15:41:33.018Z,97792.73
2017-12-04T15:43:59.142Z,97788.36
2017-12-04T15:46:25.263Z,97789.90
2017-12-04T15:48:51.401Z,97793.38
2017-12-04T15:51:17.485Z,97787.02
2017-12-04T15:53:43.646Z,97796.73
2017-12-04T15:56:09.789Z,97800.69
2017-12-04T15:58:35.868Z,97801.51
2017-12-04T16:01:01.992Z,97796.39
2017-12-04T16:03:28.108Z,97794.81
2017-12-04T16:05:54.221Z,97797.64
2017-12-04T16:08:20.338Z,97803.77
2017-12-04T16:10:46.424Z,97795.64
2017-12-04T16:13:12.588Z,97790.00
2017-12-04T16:15:38.724Z,97778.74
2017-12-04T16:18:04.962Z,97820.45
2017-12-04T16:20:31.026Z,97816.67
2017-12-04T16:22:57.129Z,97820.87
2017-12-04T16:25:23.203Z,97832.91
2017-12-04T16:27:49.307Z,97814.19
2017-12-04T16:30:15.489Z,97822.41
2017-12-04T16:32:41.692Z,97826.84
2017-12-04T16:35:07.828Z,97825.66
2017-12-04T16:37:34.049Z,97824.55
2017-12-04T16:40:00.186Z,97827.13
2017-12-04T16:42:26.446Z,97825.41
2017-12-04T16:44:52.607Z,97824.36
2017-12-04T16:47:18.751Z,97823.91
2017-12-04T16:49:44.877Z,97830.47
2017-12-04T16:52:11.046Z,97837.59
2017-12-04T16:54:37.157Z,97842.88
2017-12-04T16:57:03.272Z,97840.83
2017-12-04T16:59:29.396Z,97840.20
2017-12-04T17:01:55.865Z,97848.37
2017-12-04T17:04:21.977Z,97852.97
2017-12-04T17:06:48.062Z,97858.19
2017-12-04T17:09:14.225Z,97858.14
2017-12-04T17:11:40.416Z,97864.03
2017-12-04T17:14:06.571Z,97865.96
2017-12-04T17:16:32.795Z,97866.88
2017-12-04T17:18:58.997Z,97872.84
2017-12-04T17:21:25.199Z,97881.08
2017-12-04T17:23:51.339Z,97879.09
2017-12-04T17:26:17.505Z,97885.91
2017-12-04T17:28:43.671Z,97888.22
2017-12-04T17:31:09.849Z,97894.92
2017-12-04T17:33:35.976Z,97899.72
2017-12-04T17:36:02.092Z,97916.44
2017-12-04T17:38:28.196Z,97914.80
2017-12-04T17:40:54.325Z,97914.63
2017-12-04T17:43:20.464Z,97917.88
2017-12-04T17:45:46.631Z,97922.94
2017-12-04T17:48:12.767Z,97924.58
2017-12-04T17:50:38.873Z,97923.05
2017-12-04T17:53:04.971Z,97936.14
2017-12-04T17:55:31.117Z,97943.47
2017-12-04T17:57:57.302Z,97943.22
2017-12-04T18:00:23.411Z,97947.53
2017-12-04T18:02:49.560Z,97957.44
2017-12-04T18:05:15.686Z,97957.11
2017-12-04T18:07:41.801Z,97947.33
2017-12-04T18:10:07.905Z,97960.39
2017-12-04T18:12:33.969Z,97959.32
2017-12-04T18:15:00.102Z,97964.88
2017-12-04T18:17:26.246Z,97960.39
2017-12-04T18:19:52.340Z,97967.03
2017-12-04T18:22:18.448Z,97971.77
2017-12-04T18:24:44.545Z,97977.12
2017-12-04T18:27:10.715Z,97978.63
2017-12-04T18:29:36.838Z,97994.73
2017-12-04T18:32:02.938Z,97992.39
2017-12-04T18:34:29.105Z,97988.11
2017-12-04T18:36:55.781Z,97987.77
2017-12-04T18:39:21.916Z,97977.22
2017-12-04T18:41:48.125Z,97986.73
2017-12-04T18:44:14.270Z,97996.14
2017-12-04T18:46:40.420Z,97992.02
2017-12-04T18:49:06.549Z,97996.24
2017-12-04T18:51:32.631Z,97990.81
2017-12-04T18:53:58.842Z,97996.31
2017-12-04T18:56:25.437Z,98009.46
2017-12-04T18:58:51.518Z,98008.34
2017-12-04T19:01:17.655Z,98009.81
2017-12-04T19:03:43.733Z,98017.00
2017-12-04T19:06:09.844Z,98010.83
2017-12-04T19:08:35.933Z,98023.91
2017-12-04T19:11:02.002Z,98022.72
2017-12-04T19:13:28.201Z,98028.17
2017-12-04T19:15:54.340Z,98023.34
2017-12-04T19:18:20.576Z,98029.13
2017-12-04T19:20:46.796Z,98025.80
2017-12-04T19:23:13.123Z,98009.45
2017-12-04T19:25:39.408Z,98020.78
2017-12-04T19:28:05.687Z,98020.17
2017-12-04T19:30:32.070Z,98013.95
2017-12-04T19:32:58.267Z,98020.11
2017-12-04T19:35:24.567Z,98023.91
2017-12-04T19:37:50.782Z,98021.89
2017-12-04T19:40:17.211Z,98021.53
2017-12-04T19:42:43.566Z,98022.56
2017-12-04T19:45:09.909Z,98026.58
2017-12-04T19:47:36.250Z,98029.19
2017-12-04T19:50:02.576Z,98025.68
2017-12-04T19:52:28.846Z,98026.18
2017-12-04T19:54:55.098Z,98027.22
2017-12-04T19:57:21.439Z,98034.58
2017-12-04T19:59:47.792Z,98036.28
2017-12-04T20:02:14.115Z,98035.48
2017-12-04T20:04:40.666Z,98038.16
2017-12-04T20:07:06.973Z,98037.13
2017-12-04T20:09:33.242Z,98042.45
2017-12-04T20:11:59.591Z,98047.63
2017-12-04T20:14:25.908Z,98044.03
2017-12-04T20:16:52.183Z,98043.20
2017-12-04T20:19:18.456Z,98036.91
2017-12-04T20:21:44.819Z,98037.14
2017-12-04T20:24:11.160Z,98044.66
2017-12-04T20:26:37.617Z,98041.33
2017-12-04T20:29:03.966Z,98037.70
2017-12-04T20:34:22.558Z,98035.02
2017-12-04T20:36:48.728Z,98043.59
2017-12-04T20:39:14.938Z,98051.02
2017-12-04T20:41:41.152Z,98039.97
2017-12-04T20:44:07.265Z,98047.39
2017-12-04T20:46:33.450Z,98045.40
2017-12-04T20:48:59.615Z,98051.23
2017-12-04T20:51:25.768Z,98052.13
2017-12-04T20:53:51.915Z,98051.57
2017-12-04T20:56:18.119Z,98051.45
2017-12-04T20:58:44.265Z,98058.14
2017-12-04T21:01:10.657Z,98067.63
2017-12-04T21:03:36.818Z,98070.27
2017-12-04T21:06:02.982Z,98068.54
2017-12-04T21:08:41.292Z,98065.59
2017-12-04T21:11:19.702Z,98061.22
2017-12-04T21:13:58.080Z,98071.83
2017-12-04T21:19:30.039Z,98072.84
2017-12-04T21:21:56.212Z,98080.87
2017-12-04T21:24:22.397Z,98081.16
2017-12-04T21:26:48.587Z,98082.70
2017-12-04T21:29:14.676Z,98087.99
2017-12-04T21:31:40.825Z,98096.61
2017-12-04T21:34:06.988Z,98094.27
2017-12-04T21:36:33.365Z,98094.60
2017-12-04T21:38:59.480Z,98095.52
2017-12-04T21:41:25.800Z,98100.95
2017-12-04T21:43:51.892Z,98104.69
2017-12-04T21:46:17.972Z,98097.22
2017-12-04T21:48:44.448Z,98106.70
2017-12-04T21:51:10.599Z,98108.56
2017-12-04T21:53:36.671Z,98112.66
2017-12-04T21:56:02.768Z,98113.83
2017-12-04T21:58:28.840Z,98114.69
2017-12-04T22:00:54.929Z,98117.46
2017-12-04T22:03:20.980Z,98122.17
2017-12-04T22:05:47.084Z,98130.56
2017-12-04T22:08:13.146Z,98129.83
2017-12-04T22:10:39.249Z,98131.96
2017-12-04T22:13:05.332Z,98139.84
2017-12-04T22:15:31.424Z,98143.20
2017-12-04T22:17:57.501Z,98142.45
2017-12-04T22:20:23.552Z,98153.25
2017-12-04T22:22:49.629Z,98154.09
2017-12-04T22:25:15.675Z,98161.02
2017-12-04T22:27:41.760Z,98156.47
2017-12-04T22:30:07.823Z,98166.51
2017-12-04T22:32:33.901Z,98167.98
2017-12-04T22:35:00.041Z,98170.81
2017-12-04T22:37:26.123Z,98169.74
2017-12-04T22:39:52.210Z,98160.95
2017-12-04T22:42:18.380Z,98165.14
2017-12-04T22:44:44.408Z,98169.06
2017-12-04T22:47:10.555Z,98172.13
2017-12-04T22:49:36.624Z,98167.92
2017-12-04T22:52:03.350Z,98171.44
2017-12-04T22:54:29.450Z,98175.16
2017-12-04T22:56:55.530Z,98173.14
2017-12-04T22:59:21.707Z,98182.84
2017-12-04T23:01:47.849Z,98183.23
2017-12-04T23:04:13.933Z,98184.83
2017-12-04T23:06:40.016Z,98182.72
2017-12-04T23:09:06.220Z,98195.39
2017-12-04T23:11:32.311Z,98191.57
2017-12-04T23:13:58.423Z,98185.11
2017-12-04T23:16:24.527Z,98201.16
2017-12-04T23:18:50.667Z,98202.56
2017-12-04T23:21:16.755Z,98193.44
2017-12-04T23:23:42.844Z,98195.53
2017-12-04T23:26:08.914Z,98194.86
2017-12-04T23:28:35.060Z,98196.81
2017-12-04T23:31:01.148Z,98200.64
2017-12-04T23:33:27.275Z,98201.63
2017-12-04T23:35:53.388Z,98199.45
2017-12-04T23:38:19.446Z,98203.53
2017-12-04T23:40:45.503Z,98208.67
2017-12-04T23:43:11.616Z,98201.63
2017-12-04T23:45:37.695Z,98205.34
2017-12-04T23:48:03.836Z,98202.55
2017-12-04T23:50:29.943Z,98208.44
2017-12-04T23:52:56.084Z,98208.35
2017-12-04T23:55:22.188Z,98205.46
2017-12-04T23:57:48.344Z,98211.08
